createdAt,value
2019-01-06T00:00:34.533Z,99899.27
2019-01-06T00:03:05.712Z,99899.12
2019-01-06T00:05:37.235Z,99897.58
2019-01-06T00:08:08.469Z,99901.67
2019-01-06T00:10:39.883Z,99897.82
2019-01-06T00:13:11.057Z,99898.13
2019-01-06T00:15:42.224Z,99891.87
2019-01-06T00:18:13.391Z,99895.93
2019-01-06T00:20:44.575Z,99892.00
2019-01-06T00:23:15.821Z,99898.12
2019-01-06T00:25:46.984Z,99892.05
2019-01-06T00:28:18.478Z,99885.53
2019-01-06T00:30:49.629Z,99883.14
2019-01-06T00:33:20.801Z,99881.94
2019-01-06T00:35:52.013Z,99891.45
2019-01-06T00:38:23.167Z,99889.67
2019-01-06T00:40:54.705Z,99890.03
2019-01-06T00:43:25.877Z,99892.98
2019-01-06T00:45:57.018Z,99891.77
2019-01-06T00:48:28.195Z,99897.22
2019-01-06T00:50:59.388Z,99897.55
2019-01-06T00:53:30.522Z,99903.27
2019-01-06T00:56:01.704Z,99915.84
2019-01-06T00:58:32.878Z,99918.80
2019-01-06T01:01:04.033Z,99922.66
2019-01-06T01:03:35.203Z,99917.32
2019-01-06T01:06:06.409Z,99913.44
2019-01-06T01:08:37.555Z,99911.02
2019-01-06T01:11:09.070Z,99913.91
2019-01-06T01:13:40.264Z,99917.69
2019-01-06T01:16:11.432Z,99918.86
2019-01-06T01:18:42.588Z,99923.67
2019-01-06T01:21:13.796Z,99922.36
2019-01-06T01:23:44.935Z,99920.27
2019-01-06T01:26:16.079Z,99919.89
2019-01-06T01:28:47.265Z,99920.36
2019-01-06T01:31:18.432Z,99919.48
2019-01-06T01:33:49.597Z,99926.16
2019-01-06T01:36:20.758Z,99934.88
2019-01-06T01:38:51.927Z,99940.33
2019-01-06T01:41:23.085Z,99940.20
2019-01-06T01:43:54.289Z,99939.18
2019-01-06T01:46:25.425Z,99945.91
2019-01-06T01:48:56.566Z,99952.56
2019-01-06T01:51:27.727Z,99954.50
2019-01-06T01:53:58.899Z,99948.39
2019-01-06T01:56:30.065Z,99944.91
2019-01-06T01:59:01.243Z,99944.31
2019-01-06T02:01:32.423Z,99940.77
2019-01-06T02:04:22.885Z,99939.99
2019-01-06T02:06:54.035Z,99940.07
2019-01-06T02:09:25.175Z,99940.30
2019-01-06T02:11:57.341Z,99938.13
2019-01-06T02:14:28.480Z,99943.05
2019-01-06T02:16:59.635Z,99935.67
2019-01-06T02:19:31.078Z,99950.86
2019-01-06T02:22:02.218Z,99961.20
2019-01-06T02:24:33.208Z,99956.67
2019-01-06T02:27:05.555Z,99957.48
2019-01-06T02:29:36.821Z,99960.89
2019-01-06T02:32:07.957Z,99965.80
2019-01-06T02:34:39.472Z,99960.84
2019-01-06T02:37:10.652Z,99959.39
2019-01-06T02:39:41.804Z,99956.61
2019-01-06T02:42:12.998Z,99958.20
2019-01-06T02:44:44.167Z,99960.66
2019-01-06T02:47:34.697Z,99955.83
2019-01-06T02:50:06.984Z,99963.13
2019-01-06T02:52:38.120Z,99956.88
2019-01-06T02:55:09.401Z,99956.73
2019-01-06T02:57:40.560Z,99955.39
2019-01-06T03:00:11.869Z,99956.70
2019-01-06T03:02:43.043Z,99953.08
2019-01-06T03:05:14.225Z,99952.04
2019-01-06T03:07:45.439Z,99944.22
2019-01-06T03:10:16.616Z,99941.22
2019-01-06T03:12:48.127Z,99941.66
2019-01-06T03:15:19.271Z,99943.84
2019-01-06T03:17:50.445Z,99940.63
2019-01-06T03:20:21.620Z,99937.75
2019-01-06T03:22:52.800Z,99928.03
2019-01-06T03:25:23.959Z,99927.17
2019-01-06T03:27:55.126Z,99927.36
2019-01-06T03:30:26.283Z,99928.22
2019-01-06T03:32:57.498Z,99928.11
2019-01-06T03:35:28.631Z,99931.30
2019-01-06T03:37:59.804Z,99921.41
2019-01-06T03:40:50.271Z,99926.70
2019-01-06T03:43:21.412Z,99925.92
2019-01-06T03:45:52.551Z,99929.48
2019-01-06T03:48:23.727Z,99932.89
2019-01-06T03:50:54.901Z,99933.94
2019-01-06T03:53:26.074Z,99933.22
2019-01-06T03:55:57.235Z,99929.52
2019-01-06T03:58:28.377Z,99935.55
2019-01-06T04:00:59.549Z,99935.80
2019-01-06T04:03:50.013Z,99929.57
2019-01-06T04:06:21.153Z,99920.70
2019-01-06T04:08:52.335Z,99926.00
2019-01-06T04:11:42.808Z,99930.55
2019-01-06T04:14:13.949Z,99926.20
2019-01-06T04:16:45.125Z,99930.24
2019-01-06T04:19:16.300Z,99928.52
2019-01-06T04:21:47.514Z,99932.98
2019-01-06T04:24:18.688Z,99929.65
2019-01-06T04:26:49.896Z,99920.45
2019-01-06T04:29:21.035Z,99915.08
2019-01-06T04:31:52.192Z,99915.11
2019-01-06T04:34:23.841Z,99914.29
2019-01-06T04:36:54.978Z,99915.51
2019-01-06T04:39:26.489Z,99911.67
2019-01-06T04:41:57.681Z,99910.94
2019-01-06T04:44:48.133Z,99911.05
2019-01-06T04:47:38.564Z,99915.69
2019-01-06T04:53:15.921Z,99910.75
2019-01-06T04:55:47.074Z,99906.13
2019-01-06T04:58:18.253Z,99907.36
2019-01-06T05:00:49.442Z,99903.73
2019-01-06T05:03:20.588Z,99905.25
2019-01-06T05:05:51.770Z,99897.17
2019-01-06T05:08:22.982Z,99900.56
2019-01-06T05:10:54.145Z,99903.58
2019-01-06T05:13:25.308Z,99902.48
2019-01-06T05:15:57.441Z,99895.66
2019-01-06T05:18:28.617Z,99890.41
2019-01-06T05:20:59.786Z,99892.80
2019-01-06T05:23:31.266Z,99892.62
2019-01-06T05:26:02.440Z,99898.45
2019-01-06T05:28:33.621Z,99894.10
2019-01-06T05:31:04.877Z,99900.47
2019-01-06T05:33:36.012Z,99903.28
2019-01-06T05:36:07.159Z,99903.25
2019-01-06T05:38:38.340Z,99905.30
2019-01-06T05:41:09.519Z,99905.02
2019-01-06T05:43:40.691Z,99898.36
2019-01-06T05:46:31.164Z,99906.80
2019-01-06T05:49:02.410Z,99901.00
2019-01-06T05:51:33.578Z,99910.77
2019-01-06T05:54:04.781Z,99907.36
2019-01-06T05:56:36.015Z,99910.70
2019-01-06T05:59:07.110Z,99909.34
2019-01-06T06:01:38.349Z,99910.19
2019-01-06T06:04:09.460Z,99908.27
2019-01-06T06:06:40.649Z,99912.77
2019-01-06T06:09:11.823Z,99909.31
2019-01-06T06:11:42.992Z,99913.03
2019-01-06T06:14:14.173Z,99911.48
2019-01-06T06:16:46.649Z,99911.86
2019-01-06T06:19:17.812Z,99912.65
2019-01-06T06:21:48.953Z,99915.72
2019-01-06T06:24:20.119Z,99912.15
2019-01-06T06:26:51.368Z,99914.63
2019-01-06T06:29:22.509Z,99913.34
2019-01-06T06:31:53.563Z,99914.44
2019-01-06T06:34:24.723Z,99919.30
2019-01-06T06:36:55.864Z,99922.05
2019-01-06T06:39:27.110Z,99923.91
2019-01-06T06:41:58.348Z,99922.13
2019-01-06T06:44:29.498Z,99919.28
2019-01-06T06:47:00.659Z,99917.05
2019-01-06T06:49:31.799Z,99914.91
2019-01-06T06:52:03.048Z,99915.05
2019-01-06T06:54:34.252Z,99918.95
2019-01-06T06:57:09.858Z,99922.02
2019-01-06T06:59:45.477Z,99921.39
2019-01-06T07:02:21.116Z,99931.48
2019-01-06T07:04:52.296Z,99931.45
2019-01-06T07:10:13.673Z,99941.31
2019-01-06T07:12:44.837Z,99947.45
2019-01-06T07:15:16.081Z,99945.22
2019-01-06T07:17:50.645Z,99950.03
2019-01-06T07:20:41.163Z,99950.95
2019-01-06T07:23:12.365Z,99957.28
2019-01-06T07:25:43.505Z,99961.67
2019-01-06T07:28:33.988Z,99968.19
2019-01-06T07:31:05.140Z,99964.86
2019-01-06T07:33:36.325Z,99965.54
2019-01-06T07:36:07.523Z,99970.06
2019-01-06T07:38:38.689Z,99976.98
2019-01-06T07:41:09.823Z,99975.72
2019-01-06T07:43:41.029Z,99978.72
2019-01-06T07:46:12.169Z,99984.89
2019-01-06T07:48:43.340Z,99982.59
2019-01-06T07:51:14.530Z,99990.16
2019-01-06T07:54:04.948Z,99991.77
2019-01-06T07:56:36.373Z,99989.42
2019-01-06T07:59:07.512Z,99995.28
2019-01-06T08:01:38.659Z,99995.11
2019-01-06T08:04:09.807Z,99998.62
2019-01-06T08:06:40.947Z,99997.67
2019-01-06T08:09:12.089Z,99998.08
2019-01-06T08:11:43.294Z,100000.37
2019-01-06T08:14:14.445Z,100002.31
2019-01-06T08:16:45.593Z,100003.78
2019-01-06T08:19:16.945Z,100004.78
2019-01-06T08:21:48.169Z,100004.61
2019-01-06T08:24:19.419Z,100006.66
2019-01-06T08:26:50.980Z,100005.72
2019-01-06T08:29:22.159Z,100010.52
2019-01-06T08:32:02.370Z,100009.97
2019-01-06T08:34:35.033Z,100011.81
2019-01-06T08:37:06.179Z,100014.02
2019-01-06T08:39:37.349Z,100016.47
2019-01-06T08:42:08.528Z,100017.08
2019-01-06T08:44:39.665Z,100027.98
2019-01-06T08:47:19.866Z,100023.76
2019-01-06T08:49:54.035Z,100025.01
2019-01-06T08:52:31.369Z,100026.38
2019-01-06T08:55:02.526Z,100037.12
2019-01-06T08:57:33.716Z,100035.98
2019-01-06T09:00:05.330Z,100031.03
2019-01-06T09:02:36.515Z,100031.73
2019-01-06T09:05:13.636Z,100036.65
2019-01-06T09:07:44.819Z,100041.13
2019-01-06T09:10:15.987Z,100046.55
2019-01-06T09:12:47.634Z,100046.52
2019-01-06T09:15:19.048Z,100046.55
2019-01-06T09:17:50.563Z,100048.37
2019-01-06T09:20:22.069Z,100048.91
2019-01-06T09:22:53.240Z,100045.32
2019-01-06T09:25:24.402Z,100046.86
2019-01-06T09:27:55.697Z,100050.08
2019-01-06T09:30:26.840Z,100047.97
2019-01-06T09:32:58.019Z,100042.23
2019-01-06T09:35:31.117Z,100037.87
2019-01-06T09:38:02.414Z,100043.81
2019-01-06T09:40:33.566Z,100038.36
2019-01-06T09:43:04.722Z,100046.95
2019-01-06T09:45:35.867Z,100052.19
2019-01-06T09:48:07.034Z,100051.86
2019-01-06T09:50:38.419Z,100052.94
2019-01-06T09:53:09.598Z,100059.56
2019-01-06T09:55:40.738Z,100056.35
2019-01-06T09:58:11.914Z,100063.08
2019-01-06T10:00:43.094Z,100066.59
2019-01-06T10:03:14.238Z,100064.88
2019-01-06T10:05:45.412Z,100063.06
2019-01-06T10:08:16.586Z,100058.84
2019-01-06T10:11:07.061Z,100058.13
2019-01-06T10:13:38.230Z,100054.91
2019-01-06T10:16:09.397Z,100049.11
2019-01-06T10:18:40.586Z,100050.33
2019-01-06T10:21:11.814Z,100044.44
2019-01-06T10:23:42.992Z,100041.30
2019-01-06T10:26:14.540Z,100037.91
2019-01-06T10:28:47.169Z,100036.33
2019-01-06T10:31:18.593Z,100036.52
2019-01-06T10:33:49.852Z,100036.94
2019-01-06T10:36:21.019Z,100039.90
2019-01-06T10:38:52.193Z,100036.27
2019-01-06T10:41:24.880Z,100038.25
2019-01-06T10:43:56.043Z,100037.25
2019-01-06T10:46:46.505Z,100040.18
2019-01-06T10:49:17.691Z,100036.52
2019-01-06T10:51:48.849Z,100037.91
2019-01-06T10:54:20.278Z,100038.16
2019-01-06T10:56:51.441Z,100038.06
2019-01-06T10:59:22.625Z,100037.98
2019-01-06T11:01:53.788Z,100037.83
2019-01-06T11:04:24.966Z,100041.44
2019-01-06T11:06:56.139Z,100039.63
2019-01-06T11:09:27.404Z,100042.09
2019-01-06T11:11:58.650Z,100037.77
2019-01-06T11:14:29.893Z,100037.36
2019-01-06T11:17:01.076Z,100042.09
2019-01-06T11:19:32.221Z,100035.64
2019-01-06T11:22:03.437Z,100036.70
2019-01-06T11:24:34.685Z,100039.96
2019-01-06T11:27:05.861Z,100031.56
2019-01-06T11:29:37.106Z,100038.09
2019-01-06T11:32:27.634Z,100033.13
2019-01-06T11:34:58.804Z,100030.87
2019-01-06T11:37:29.956Z,100029.63
2019-01-06T11:40:01.423Z,100034.69
2019-01-06T11:42:32.585Z,100032.95
2019-01-06T11:45:03.724Z,100034.14
2019-01-06T11:47:35.297Z,100028.27
2019-01-06T11:50:07.306Z,100029.86
2019-01-06T11:52:38.491Z,100029.02
2019-01-06T11:55:09.721Z,100026.97
2019-01-06T11:57:40.857Z,100028.91
2019-01-06T12:00:12.165Z,100029.38
2019-01-06T12:02:43.337Z,100030.27
2019-01-06T12:05:15.972Z,100028.16
2019-01-06T12:07:47.151Z,100021.41
2019-01-06T12:10:18.378Z,100019.57
2019-01-06T12:12:49.556Z,100020.55
2019-01-06T12:15:20.697Z,100018.09
2019-01-06T12:17:51.955Z,100020.42
2019-01-06T12:20:23.092Z,100018.36
2019-01-06T12:22:54.273Z,100025.69
2019-01-06T12:25:25.481Z,100023.42
2019-01-06T12:27:56.703Z,100029.39
2019-01-06T12:30:27.895Z,100023.55
2019-01-06T12:33:18.345Z,100028.00
2019-01-06T12:35:49.539Z,100023.64
2019-01-06T12:38:20.712Z,100030.39
2019-01-06T12:40:51.924Z,100032.12
2019-01-06T12:43:42.378Z,100031.72
2019-01-06T12:46:13.563Z,100028.53
2019-01-06T12:48:44.726Z,100030.23
2019-01-06T12:51:15.879Z,100029.41
2019-01-06T12:53:47.074Z,100030.32
2019-01-06T12:56:18.214Z,100037.17
2019-01-06T12:58:49.356Z,100036.58
2019-01-06T13:01:22.622Z,100041.74
2019-01-06T13:03:57.612Z,100043.69
2019-01-06T13:06:30.597Z,100043.02
2019-01-06T13:09:21.035Z,100046.12
2019-01-06T13:11:52.238Z,100052.64
2019-01-06T13:14:23.410Z,100049.12
2019-01-06T13:17:13.844Z,100052.88
2019-01-06T13:19:45.020Z,100060.08
2019-01-06T13:22:16.267Z,100059.41
2019-01-06T13:24:48.466Z,100061.39
2019-01-06T13:30:08.805Z,100065.71
2019-01-06T13:32:39.972Z,100069.75
2019-01-06T13:35:11.222Z,100077.00
2019-01-06T13:37:42.402Z,100078.02
2019-01-06T13:40:13.582Z,100081.47
2019-01-06T13:42:44.769Z,100082.38
2019-01-06T13:45:16.190Z,100081.70
2019-01-06T13:47:47.336Z,100084.68
2019-01-06T13:50:18.480Z,100084.54
2019-01-06T13:52:49.677Z,100090.22
2019-01-06T13:55:20.835Z,100090.83
2019-01-06T13:57:52.019Z,100090.91
2019-01-06T14:00:23.200Z,100087.03
2019-01-06T14:02:54.365Z,100093.60
2019-01-06T14:05:25.547Z,100095.99
2019-01-06T14:07:56.754Z,100094.55
2019-01-06T14:10:28.264Z,100089.33
2019-01-06T14:12:59.432Z,100090.69
2019-01-06T14:15:30.621Z,100096.88
2019-01-06T14:18:01.769Z,100092.00
2019-01-06T14:20:32.998Z,100089.91
2019-01-06T14:23:04.185Z,100096.38
2019-01-06T14:25:54.639Z,100097.28
2019-01-06T14:28:26.239Z,100098.41
2019-01-06T14:31:16.694Z,100103.16
2019-01-06T14:33:48.262Z,100103.68
2019-01-06T14:36:19.441Z,100108.91
2019-01-06T14:38:50.583Z,100111.20
2019-01-06T14:41:21.795Z,100108.77
2019-01-06T14:43:52.932Z,100106.78
2019-01-06T14:46:24.109Z,100107.27
2019-01-06T14:49:14.627Z,100109.75
2019-01-06T14:51:45.749Z,100113.39
2019-01-06T14:54:16.925Z,100114.06
2019-01-06T14:56:48.312Z,100115.60
2019-01-06T14:59:19.490Z,100120.38
2019-01-06T15:01:50.646Z,100115.20
2019-01-06T15:04:21.838Z,100119.78
2019-01-06T15:06:53.020Z,100120.91
2019-01-06T15:09:24.158Z,100118.67
2019-01-06T15:12:14.729Z,100126.52
2019-01-06T15:14:45.874Z,100124.57
2019-01-06T15:17:17.050Z,100119.88
2019-01-06T15:20:08.469Z,100122.86
2019-01-06T15:22:39.609Z,100122.19
2019-01-06T15:25:10.754Z,100122.34
2019-01-06T15:27:42.029Z,100126.85
2019-01-06T15:30:13.192Z,100125.85
2019-01-06T15:32:44.329Z,100125.39
2019-01-06T15:35:15.616Z,100129.50
2019-01-06T15:37:46.790Z,100130.95
2019-01-06T15:40:17.941Z,100131.61
2019-01-06T15:42:49.209Z,100132.20
2019-01-06T15:45:20.388Z,100139.67
2019-01-06T15:47:53.092Z,100137.11
2019-01-06T15:50:24.177Z,100141.31
2019-01-06T15:52:55.360Z,100138.91
2019-01-06T15:55:26.526Z,100139.29
2019-01-06T15:57:57.711Z,100141.16
2019-01-06T16:00:28.866Z,100142.33
2019-01-06T16:03:00.021Z,100139.61
2019-01-06T16:05:31.576Z,100146.08
2019-01-06T16:08:02.753Z,100145.68
2019-01-06T16:10:53.214Z,100148.11
2019-01-06T16:13:24.362Z,100148.32
2019-01-06T16:18:42.894Z,100154.05
2019-01-06T16:21:14.065Z,100155.45
2019-01-06T16:23:45.251Z,100151.21
2019-01-06T16:26:35.747Z,100155.69
2019-01-06T16:29:06.884Z,100157.41
2019-01-06T16:31:38.047Z,100157.54
2019-01-06T16:34:09.232Z,100154.73
2019-01-06T16:36:40.389Z,100158.03
2019-01-06T16:39:11.566Z,100153.90
2019-01-06T16:41:42.749Z,100152.48
2019-01-06T16:44:13.928Z,100155.27
2019-01-06T16:46:45.068Z,100157.22
2019-01-06T16:49:16.262Z,100156.08
2019-01-06T16:51:47.464Z,100157.64
2019-01-06T16:57:05.129Z,100157.11
2019-01-06T16:59:36.298Z,100156.31
2019-01-06T17:02:07.481Z,100151.70
2019-01-06T17:04:38.636Z,100150.88
2019-01-06T17:07:09.813Z,100154.94
2019-01-06T17:09:40.953Z,100151.59
2019-01-06T17:12:12.181Z,100147.93
2019-01-06T17:14:43.328Z,100140.77
2019-01-06T17:17:14.482Z,100151.88
2019-01-06T17:19:46.212Z,100152.50
2019-01-06T17:22:17.356Z,100146.89
2019-01-06T17:24:48.509Z,100150.61
2019-01-06T17:27:19.733Z,100152.42
2019-01-06T17:29:51.265Z,100154.92
2019-01-06T17:32:22.425Z,100157.07
2019-01-06T17:34:53.626Z,100158.05
2019-01-06T17:37:24.784Z,100157.38
2019-01-06T17:39:55.930Z,100160.28
2019-01-06T17:42:27.151Z,100165.32
2019-01-06T17:44:58.289Z,100161.39
2019-01-06T17:47:48.790Z,100160.09
2019-01-06T17:50:19.967Z,100167.77
2019-01-06T17:52:51.132Z,100168.73
2019-01-06T17:55:22.337Z,100174.09
2019-01-06T17:57:54.696Z,100168.78
2019-01-06T18:00:38.122Z,100178.14
2019-01-06T18:03:09.289Z,100177.08
2019-01-06T18:05:40.458Z,100177.89
2019-01-06T18:08:11.659Z,100177.66
2019-01-06T18:11:02.113Z,100186.31
2019-01-06T18:13:33.317Z,100179.24
2019-01-06T18:16:04.469Z,100182.87
2019-01-06T18:18:35.738Z,100182.06
2019-01-06T18:21:06.900Z,100188.09
2019-01-06T18:23:38.044Z,100184.96
2019-01-06T18:26:09.222Z,100178.27
2019-01-06T18:28:40.405Z,100186.64
2019-01-06T18:31:11.550Z,100191.50
2019-01-06T18:33:42.731Z,100189.09
2019-01-06T18:36:14.009Z,100193.06
2019-01-06T18:38:45.148Z,100195.54
2019-01-06T18:41:16.294Z,100194.41
2019-01-06T18:43:47.493Z,100193.44
2019-01-06T18:46:18.643Z,100193.61
2019-01-06T18:48:49.820Z,100198.33
2019-01-06T18:51:21.018Z,100195.20
2019-01-06T18:53:52.209Z,100192.91
2019-01-06T18:56:42.658Z,100194.25
2019-01-06T18:59:13.815Z,100196.19
2019-01-06T19:01:44.962Z,100196.30
2019-01-06T19:04:16.150Z,100194.83
2019-01-06T19:06:47.317Z,100198.01
2019-01-06T19:12:05.376Z,100194.56
2019-01-06T19:14:36.500Z,100199.86
2019-01-06T19:17:07.694Z,100199.98
2019-01-06T19:19:39.192Z,100198.62
2019-01-06T19:22:23.424Z,100203.33
2019-01-06T19:24:54.689Z,100207.42
2019-01-06T19:27:25.926Z,100206.13
2019-01-06T19:29:57.102Z,100205.64
2019-01-06T19:32:28.277Z,100206.00
2019-01-06T19:34:59.451Z,100209.55
2019-01-06T19:37:30.590Z,100208.55
2019-01-06T19:40:01.814Z,100209.02
2019-01-06T19:42:32.983Z,100216.09
2019-01-06T19:45:04.153Z,100215.97
2019-01-06T19:47:35.381Z,100216.80
2019-01-06T19:50:08.197Z,100213.66
2019-01-06T19:52:39.336Z,100215.65
2019-01-06T19:57:57.833Z,100210.65
2019-01-06T20:00:28.982Z,100214.28
2019-01-06T20:03:00.126Z,100214.09
2019-01-06T20:05:31.293Z,100215.06
2019-01-06T20:08:02.470Z,100212.79
2019-01-06T20:10:33.612Z,100212.83
2019-01-06T20:13:04.812Z,100210.13
2019-01-06T20:15:35.973Z,100210.78
2019-01-06T20:18:26.437Z,100217.57
2019-01-06T20:20:57.613Z,100214.28
2019-01-06T20:23:29.714Z,100218.30
2019-01-06T20:26:00.904Z,100215.50
2019-01-06T20:28:32.073Z,100220.05
2019-01-06T20:31:03.251Z,100218.80
2019-01-06T20:33:34.472Z,100216.84
2019-01-06T20:36:24.924Z,100218.94
2019-01-06T20:38:56.116Z,100222.26
2019-01-06T20:41:27.257Z,100222.72
2019-01-06T20:43:58.425Z,100220.13
2019-01-06T20:46:29.629Z,100222.88
2019-01-06T20:49:00.794Z,100223.99
2019-01-06T20:51:31.958Z,100222.84
2019-01-06T20:54:03.141Z,100224.68
2019-01-06T20:56:34.323Z,100224.79
2019-01-06T20:59:05.447Z,100220.88
2019-01-06T21:01:36.633Z,100225.55
2019-01-06T21:04:07.791Z,100223.66
2019-01-06T21:06:39.040Z,100224.52
2019-01-06T21:09:10.817Z,100229.91
2019-01-06T21:11:41.961Z,100231.80
2019-01-06T21:14:13.104Z,100232.08
2019-01-06T21:16:44.289Z,100236.86
2019-01-06T21:19:15.445Z,100232.66
2019-01-06T21:21:46.623Z,100229.58
2019-01-06T21:24:17.801Z,100237.06
2019-01-06T21:26:48.969Z,100232.70
2019-01-06T21:29:20.117Z,100234.33
2019-01-06T21:31:51.340Z,100229.44
2019-01-06T21:37:14.966Z,100233.05
2019-01-06T21:39:46.147Z,100236.53
2019-01-06T21:42:17.313Z,100229.64
2019-01-06T21:44:48.485Z,100229.38
2019-01-06T21:47:19.662Z,100238.62
2019-01-06T21:49:50.812Z,100239.12
2019-01-06T21:52:22.022Z,100240.91
2019-01-06T21:54:53.176Z,100243.17
2019-01-06T21:57:24.360Z,100244.88
2019-01-06T21:59:55.517Z,100247.04
2019-01-06T22:02:26.703Z,100244.02
2019-01-06T22:04:57.862Z,100240.47
2019-01-06T22:07:29.088Z,100239.50
2019-01-06T22:10:00.283Z,100240.47
2019-01-06T22:12:31.449Z,100237.82
2019-01-06T22:15:02.629Z,100238.41
2019-01-06T22:20:23.998Z,100232.06
2019-01-06T22:22:55.547Z,100235.28
2019-01-06T22:25:27.053Z,100230.77
2019-01-06T22:27:58.247Z,100238.36
2019-01-06T22:30:29.402Z,100242.08
2019-01-06T22:33:00.541Z,100238.08
2019-01-06T22:35:31.751Z,100235.67
2019-01-06T22:38:02.913Z,100233.13
2019-01-06T22:40:34.064Z,100234.63
2019-01-06T22:43:05.394Z,100232.38
2019-01-06T22:45:36.548Z,100230.31
2019-01-06T22:48:07.705Z,100233.54
2019-01-06T22:50:38.866Z,100228.92
2019-01-06T22:53:10.046Z,100232.89
2019-01-06T22:55:41.199Z,100241.28
2019-01-06T22:58:12.403Z,100236.26
2019-01-06T23:00:43.872Z,100234.69
2019-01-06T23:06:01.932Z,100231.25
2019-01-06T23:08:33.084Z,100233.20
2019-01-06T23:11:04.275Z,100232.14
2019-01-06T23:13:35.438Z,100223.44
2019-01-06T23:16:06.637Z,100226.86
2019-01-06T23:18:37.798Z,100225.53
2019-01-06T23:21:08.969Z,100225.06
2019-01-06T23:23:40.142Z,100225.99
2019-01-06T23:26:11.319Z,100222.98
2019-01-06T23:28:42.515Z,100219.59
2019-01-06T23:31:32.972Z,100225.55
2019-01-06T23:34:04.532Z,100223.47
2019-01-06T23:36:35.717Z,100218.40
2019-01-06T23:39:08.767Z,100219.52
2019-01-06T23:41:39.965Z,100224.70
2019-01-06T23:44:11.104Z,100229.78
2019-01-06T23:46:42.314Z,100226.30
2019-01-06T23:49:13.752Z,100222.92
2019-01-06T23:51:44.912Z,100220.01
2019-01-06T23:54:16.059Z,100214.78
2019-01-06T23:56:47.265Z,100216.66
2019-01-06T23:59:18.420Z,100217.17
